createdAt,value
2022-10-13T00:00:54.194Z,12.15
2022-10-13T00:03:23.367Z,12.16
2022-10-13T00:05:51.711Z,12.15
2022-10-13T00:08:22.085Z,12.14
2022-10-13T00:10:53.734Z,12.12
2022-10-13T00:13:21.488Z,12.12
2022-10-13T00:15:49.613Z,12.13
2022-10-13T00:18:18.076Z,12.13
2022-10-13T00:20:49.197Z,12.13
2022-10-13T00:23:17.355Z,12.12
2022-10-13T00:25:46.423Z,12.13
2022-10-13T00:28:15.623Z,12.13
2022-10-13T00:30:43.404Z,12.17
2022-10-13T00:33:11.495Z,12.17
2022-10-13T00:35:41.891Z,12.19
2022-10-13T00:38:11.568Z,12.20
2022-10-13T00:40:46.894Z,12.21
2022-10-13T00:43:17.983Z,12.21
2022-10-13T00:45:46.724Z,12.21
2022-10-13T00:48:14.436Z,12.21
2022-10-13T00:50:43.428Z,12.21
2022-10-13T00:53:12.984Z,12.20
2022-10-13T00:55:42.247Z,12.18
2022-10-13T00:58:11.955Z,12.21
2022-10-13T01:00:39.829Z,12.21
2022-10-13T01:03:07.550Z,12.22
2022-10-13T01:05:35.412Z,12.22
2022-10-13T01:08:03.728Z,12.23
2022-10-13T01:10:41.795Z,12.23
2022-10-13T01:13:14.552Z,12.19
2022-10-13T01:15:45.742Z,12.26
2022-10-13T01:18:17.485Z,12.24
2022-10-13T01:21:17.185Z,12.27
2022-10-13T01:24:14.159Z,12.27
2022-10-13T01:27:14.919Z,12.21
2022-10-13T01:30:11.711Z,12.30
2022-10-13T01:32:49.262Z,12.30
2022-10-13T01:35:20.837Z,12.33
2022-10-13T01:37:50.924Z,12.30
2022-10-13T01:40:24.910Z,12.32
2022-10-13T01:42:57.940Z,12.34
2022-10-13T01:45:31.507Z,12.35
2022-10-13T01:47:59.850Z,12.38
2022-10-13T01:50:27.780Z,12.39
2022-10-13T01:52:55.829Z,12.34
2022-10-13T01:55:23.766Z,12.43
2022-10-13T01:57:51.420Z,12.43
2022-10-13T02:00:21.009Z,12.45
2022-10-13T02:02:57.019Z,12.46
2022-10-13T02:05:28.262Z,12.50
2022-10-13T02:08:02.626Z,12.50
2022-10-13T02:10:35.432Z,12.52
2022-10-13T02:13:04.758Z,12.52
2022-10-13T02:15:36.100Z,12.53
2022-10-13T02:18:05.802Z,12.54
2022-10-13T02:20:33.793Z,12.52
2022-10-13T02:23:03.927Z,12.44
2022-10-13T02:25:32.182Z,12.53
2022-10-13T02:28:01.196Z,12.52
2022-10-13T02:30:31.279Z,12.56
2022-10-13T02:32:58.965Z,12.56
2022-10-13T02:35:28.072Z,12.57
2022-10-13T02:37:55.674Z,12.58
2022-10-13T02:40:23.404Z,12.57
2022-10-13T02:42:51.089Z,12.58
2022-10-13T02:45:19.223Z,12.59
2022-10-13T02:47:46.898Z,12.59
2022-10-13T02:50:14.659Z,12.60
2022-10-13T02:52:43.709Z,12.61
2022-10-13T02:55:11.449Z,12.61
2022-10-13T02:57:39.158Z,12.62
2022-10-13T03:00:08.188Z,12.62
2022-10-13T03:02:35.946Z,12.62
2022-10-13T03:05:03.632Z,12.61
2022-10-13T03:07:31.294Z,12.64
2022-10-13T03:10:00.379Z,12.63
2022-10-13T03:12:28.122Z,12.62
2022-10-13T03:14:55.719Z,12.66
2022-10-13T03:17:23.427Z,12.65
2022-10-13T03:19:51.224Z,12.65
2022-10-13T03:22:19.306Z,12.66
2022-10-13T03:24:47.116Z,12.67
2022-10-13T03:27:16.143Z,12.66
2022-10-13T03:29:43.758Z,12.67
2022-10-13T03:32:11.675Z,12.69
2022-10-13T03:34:39.343Z,12.67
2022-10-13T03:37:07.393Z,12.68
2022-10-13T03:39:35.058Z,12.69
2022-10-13T03:42:02.924Z,12.66
2022-10-13T03:44:31.978Z,12.64
2022-10-13T03:46:59.667Z,12.67
2022-10-13T03:49:27.339Z,12.70
2022-10-13T03:51:54.964Z,12.65
2022-10-13T03:54:22.724Z,12.68
2022-10-13T03:56:50.373Z,12.65
2022-10-13T03:59:18.594Z,12.66
2022-10-13T04:01:47.700Z,12.65
2022-10-13T04:04:15.564Z,12.64
2022-10-13T04:06:43.426Z,12.67
2022-10-13T04:09:11.117Z,12.66
2022-10-13T04:11:38.758Z,12.65
2022-10-13T04:14:06.422Z,12.66
2022-10-13T04:16:34.147Z,12.64
2022-10-13T04:19:05.231Z,12.62
2022-10-13T04:21:34.448Z,12.65
2022-10-13T04:24:03.008Z,12.66
2022-10-13T04:26:32.660Z,12.65
2022-10-13T04:29:01.071Z,12.67
2022-10-13T04:31:30.394Z,12.66
2022-10-13T04:33:58.759Z,12.67
2022-10-13T04:36:28.899Z,12.67
2022-10-13T04:38:56.702Z,12.66
2022-10-13T04:41:25.754Z,12.66
2022-10-13T04:43:54.566Z,12.67
2022-10-13T04:46:24.210Z,12.57
2022-10-13T04:48:52.081Z,12.70
2022-10-13T04:51:22.117Z,12.66
2022-10-13T04:53:55.443Z,12.67
2022-10-13T04:56:23.039Z,12.70
2022-10-13T04:58:50.702Z,12.71
2022-10-13T05:01:22.078Z,12.71
2022-10-13T05:03:52.071Z,12.72
2022-10-13T05:06:21.530Z,12.72
2022-10-13T05:08:49.272Z,12.73
2022-10-13T05:11:19.961Z,12.77
2022-10-13T05:13:47.939Z,12.79
2022-10-13T05:16:17.065Z,12.79
2022-10-13T05:18:44.963Z,12.82
2022-10-13T05:21:14.295Z,12.82
2022-10-13T05:23:42.824Z,12.84
2022-10-13T05:26:12.877Z,12.84
2022-10-13T05:28:42.310Z,12.85
2022-10-13T05:31:11.618Z,12.85
2022-10-13T05:33:39.751Z,12.87
2022-10-13T05:36:08.994Z,12.86
2022-10-13T05:38:36.735Z,12.88
2022-10-13T05:41:05.459Z,12.88
2022-10-13T05:43:33.457Z,12.88
2022-10-13T05:46:02.795Z,12.89
2022-10-13T05:48:30.829Z,12.91
2022-10-13T05:51:00.547Z,12.89
2022-10-13T05:53:29.733Z,12.92
2022-10-13T05:56:05.953Z,12.91
2022-10-13T05:58:34.127Z,12.96
2022-10-13T06:01:03.320Z,12.93
2022-10-13T06:03:31.085Z,12.95
2022-10-13T06:05:58.798Z,12.97
2022-10-13T06:08:26.429Z,12.97
2022-10-13T06:10:54.237Z,12.98
2022-10-13T06:13:21.816Z,12.97
2022-10-13T06:15:49.455Z,12.99
2022-10-13T06:18:18.506Z,12.99
2022-10-13T06:20:46.144Z,12.98
2022-10-13T06:23:13.839Z,12.97
2022-10-13T06:25:48.248Z,12.99
2022-10-13T06:28:16.363Z,12.98
2022-10-13T06:30:46.958Z,12.98
2022-10-13T06:33:14.713Z,13.00
2022-10-13T06:35:43.698Z,12.98
2022-10-13T06:38:11.605Z,12.97
2022-10-13T06:40:39.293Z,12.99
2022-10-13T06:43:07.048Z,12.98
2022-10-13T06:45:34.617Z,13.00
2022-10-13T06:48:02.270Z,13.03
2022-10-13T06:50:32.129Z,13.03
2022-10-13T06:53:01.195Z,13.05
2022-10-13T06:55:28.835Z,13.07
2022-10-13T06:57:56.877Z,13.07
2022-10-13T07:00:24.551Z,13.08
2022-10-13T07:02:53.130Z,13.09
2022-10-13T07:05:20.847Z,13.08
2022-10-13T07:07:48.536Z,13.11
2022-10-13T07:10:17.812Z,13.10
2022-10-13T07:12:45.667Z,13.08
2022-10-13T07:15:13.343Z,13.13
2022-10-13T07:17:41.071Z,13.14
2022-10-13T07:20:09.497Z,13.16
2022-10-13T07:22:37.489Z,13.15
2022-10-13T07:25:05.627Z,13.14
2022-10-13T07:27:34.587Z,13.17
2022-10-13T07:30:02.240Z,13.20
2022-10-13T07:32:30.129Z,13.20
2022-10-13T07:34:57.947Z,13.24
2022-10-13T07:37:26.220Z,13.28
2022-10-13T07:39:53.916Z,13.25
2022-10-13T07:42:21.598Z,13.28
2022-10-13T07:44:50.655Z,13.30
2022-10-13T07:47:18.679Z,13.31
2022-10-13T07:49:47.090Z,13.31
2022-10-13T07:52:14.854Z,13.35
2022-10-13T07:54:42.786Z,13.37
2022-10-13T07:57:10.554Z,13.40
2022-10-13T07:59:38.340Z,13.38
2022-10-13T08:02:07.622Z,13.44
2022-10-13T08:04:35.964Z,13.50
2022-10-13T08:07:04.318Z,13.52
2022-10-13T08:09:32.181Z,13.54
2022-10-13T08:12:00.961Z,13.56
2022-10-13T08:14:29.954Z,13.58
2022-10-13T08:16:57.922Z,13.59
2022-10-13T08:19:28.298Z,13.60
2022-10-13T08:21:58.577Z,13.63
2022-10-13T08:24:28.209Z,13.66
2022-10-13T08:26:55.813Z,13.68
2022-10-13T08:29:24.282Z,13.71
2022-10-13T08:31:53.195Z,13.75
2022-10-13T08:34:21.904Z,13.78
2022-10-13T08:36:53.023Z,13.81
2022-10-13T08:39:21.352Z,13.83
2022-10-13T08:41:49.275Z,13.87
2022-10-13T08:44:59.567Z,13.84
2022-10-13T08:47:13.342Z,13.91
2022-10-13T08:49:42.351Z,13.80
2022-10-13T08:52:18.356Z,13.89
2022-10-13T08:54:46.662Z,13.92
2022-10-13T08:57:14.573Z,13.93
2022-10-13T08:59:42.305Z,13.95
2022-10-13T09:02:14.752Z,13.98
2022-10-13T09:04:46.571Z,14.01
2022-10-13T09:07:18.135Z,14.03
2022-10-13T09:09:46.053Z,14.05
2022-10-13T09:12:15.667Z,14.07
2022-10-13T09:14:43.343Z,14.09
2022-10-13T09:17:16.809Z,14.12
2022-10-13T09:19:45.340Z,14.13
2022-10-13T09:22:24.059Z,14.20
2022-10-13T09:25:09.285Z,14.22
2022-10-13T09:27:43.583Z,14.19
2022-10-13T09:30:33.688Z,14.24
2022-10-13T09:33:20.595Z,14.24
2022-10-13T09:35:50.416Z,14.19
2022-10-13T09:38:21.391Z,14.24
2022-10-13T09:40:59.268Z,14.26
2022-10-13T09:43:33.799Z,14.28
2022-10-13T09:46:02.834Z,14.28
2022-10-13T09:48:32.678Z,14.33
2022-10-13T09:51:00.408Z,14.35
2022-10-13T09:53:33.989Z,14.39
2022-10-13T09:56:18.150Z,14.43
2022-10-13T09:58:50.367Z,14.48
2022-10-13T10:01:22.830Z,14.51
2022-10-13T10:03:50.675Z,14.55
2022-10-13T10:06:19.219Z,14.56
2022-10-13T10:09:09.143Z,14.64
2022-10-13T10:11:41.792Z,14.73
2022-10-13T10:14:17.058Z,14.75
2022-10-13T10:16:47.770Z,14.82
2022-10-13T10:19:21.604Z,14.86
2022-10-13T10:21:51.276Z,14.93
2022-10-13T10:24:27.008Z,14.93
2022-10-13T10:26:57.482Z,14.96
2022-10-13T10:29:30.706Z,14.98
2022-10-13T10:32:20.984Z,15.04
2022-10-13T10:34:52.244Z,15.09
2022-10-13T10:37:25.491Z,15.11
2022-10-13T10:40:01.338Z,15.12
2022-10-13T10:42:49.727Z,15.09
2022-10-13T10:45:23.621Z,15.15
2022-10-13T10:47:53.397Z,15.17
2022-10-13T10:50:21.954Z,15.20
2022-10-13T10:52:56.169Z,15.23
2022-10-13T10:55:31.533Z,15.26
2022-10-13T10:58:15.048Z,15.30
2022-10-13T11:00:46.720Z,15.35
2022-10-13T11:03:23.359Z,15.34
2022-10-13T11:06:02.897Z,15.39
2022-10-13T11:08:32.323Z,15.40
2022-10-13T11:11:35.045Z,15.43
2022-10-13T11:14:24.442Z,15.44
2022-10-13T11:17:25.106Z,15.48
2022-10-13T11:19:53.173Z,15.49
2022-10-13T11:22:23.883Z,15.53
2022-10-13T11:25:20.529Z,15.56
2022-10-13T11:27:49.855Z,15.61
2022-10-13T11:30:57.445Z,15.66
2022-10-13T11:33:36.465Z,15.67
2022-10-13T11:36:43.940Z,15.74
2022-10-13T11:39:36.583Z,15.76
2022-10-13T11:42:12.741Z,15.75
2022-10-13T11:44:51.806Z,15.78
2022-10-13T11:47:31.602Z,15.79
2022-10-13T11:50:05.211Z,15.84
2022-10-13T11:52:55.088Z,15.84
2022-10-13T11:55:34.493Z,15.79
2022-10-13T11:58:16.610Z,15.80
2022-10-13T12:00:56.818Z,15.79
2022-10-13T12:03:28.200Z,15.83
2022-10-13T12:05:59.168Z,15.79
2022-10-13T12:08:27.224Z,15.81
2022-10-13T12:10:58.182Z,15.87
2022-10-13T12:13:27.420Z,15.88
2022-10-13T12:16:03.194Z,15.82
2022-10-13T12:18:34.142Z,15.77
2022-10-13T12:21:04.163Z,15.81
2022-10-13T12:23:33.429Z,15.81
2022-10-13T12:26:01.569Z,15.78
2022-10-13T12:28:31.040Z,15.70
2022-10-13T12:31:01.332Z,15.77
2022-10-13T12:33:31.143Z,15.74
2022-10-13T12:36:12.713Z,15.75
2022-10-13T12:38:45.037Z,15.72
2022-10-13T12:41:12.959Z,15.69
2022-10-13T12:43:40.934Z,15.66
2022-10-13T12:46:09.970Z,15.66
2022-10-13T12:48:38.422Z,15.66
2022-10-13T12:51:14.138Z,15.64
2022-10-13T12:53:41.917Z,15.63
2022-10-13T12:56:19.910Z,15.62
2022-10-13T12:58:47.616Z,15.60
2022-10-13T13:01:33.501Z,15.56
2022-10-13T13:04:03.222Z,15.55
2022-10-13T13:06:33.461Z,15.54
2022-10-13T13:09:08.711Z,15.49
2022-10-13T13:11:37.736Z,15.55
2022-10-13T13:14:25.467Z,15.55
2022-10-13T13:17:10.472Z,15.51
2022-10-13T13:19:38.324Z,15.45
2022-10-13T13:22:06.946Z,15.49
2022-10-13T13:24:40.303Z,15.47
2022-10-13T13:27:18.416Z,15.45
2022-10-13T13:29:46.363Z,15.43
2022-10-13T13:32:19.866Z,15.43
2022-10-13T13:34:48.030Z,15.46
2022-10-13T13:37:22.231Z,15.41
2022-10-13T13:39:50.075Z,15.39
2022-10-13T13:42:17.967Z,15.39
2022-10-13T13:44:45.686Z,15.36
2022-10-13T13:47:22.770Z,15.36
2022-10-13T13:49:51.902Z,15.35
2022-10-13T13:52:19.763Z,15.27
2022-10-13T13:54:47.460Z,15.32
2022-10-13T13:57:15.876Z,15.29
2022-10-13T13:59:44.002Z,15.30
2022-10-13T14:02:14.909Z,15.31
2022-10-13T14:04:44.430Z,15.33
2022-10-13T14:07:12.585Z,15.32
2022-10-13T14:09:40.330Z,15.34
2022-10-13T14:12:08.133Z,15.35
2022-10-13T14:14:35.881Z,15.34
2022-10-13T14:17:04.694Z,15.35
2022-10-13T14:19:32.801Z,15.35
2022-10-13T14:22:05.859Z,15.30
2022-10-13T14:24:36.208Z,15.31
2022-10-13T14:27:03.927Z,15.30
2022-10-13T14:29:31.767Z,15.29
2022-10-13T14:31:59.475Z,15.29
2022-10-13T14:34:27.544Z,15.26
2022-10-13T14:36:55.497Z,15.24
2022-10-13T14:39:24.670Z,15.25
2022-10-13T14:41:52.339Z,15.25
2022-10-13T14:44:20.248Z,15.25
2022-10-13T14:46:47.951Z,15.23
2022-10-13T14:49:15.737Z,15.23
2022-10-13T14:51:43.614Z,15.20
2022-10-13T14:54:11.393Z,15.19
2022-10-13T14:56:40.520Z,15.19
2022-10-13T14:59:08.772Z,15.18
2022-10-13T15:01:36.494Z,15.17
2022-10-13T15:04:04.675Z,15.17
2022-10-13T15:06:32.790Z,15.16
2022-10-13T15:09:02.438Z,15.16
2022-10-13T15:11:30.062Z,15.16
2022-10-13T15:13:59.097Z,15.15
2022-10-13T15:16:28.861Z,15.18
2022-10-13T15:18:57.091Z,15.17
2022-10-13T15:21:25.352Z,15.16
2022-10-13T15:23:53.036Z,15.19
2022-10-13T15:26:21.153Z,15.19
2022-10-13T15:28:51.142Z,15.13
2022-10-13T15:34:05.586Z,15.17
2022-10-13T15:36:33.185Z,15.17
2022-10-13T15:39:00.815Z,15.17
2022-10-13T15:41:28.447Z,15.17
2022-10-13T15:43:56.076Z,15.16
2022-10-13T15:46:24.280Z,15.17
2022-10-13T15:48:53.205Z,15.17
2022-10-13T15:51:24.132Z,15.16
2022-10-13T15:53:52.159Z,15.15
2022-10-13T15:56:19.886Z,15.14
2022-10-13T15:58:47.548Z,15.15
2022-10-13T16:01:15.294Z,15.14
2022-10-13T16:03:43.487Z,15.13
2022-10-13T16:06:13.087Z,15.13
2022-10-13T16:08:43.987Z,15.11
2022-10-13T16:11:12.914Z,15.09
2022-10-13T16:13:41.031Z,15.09
2022-10-13T16:16:08.922Z,15.09
2022-10-13T16:18:38.427Z,15.07
2022-10-13T16:21:12.347Z,15.10
2022-10-13T16:23:45.424Z,15.07
2022-10-13T16:26:13.186Z,15.08
2022-10-13T16:28:41.126Z,15.11
2022-10-13T16:31:12.608Z,15.06
2022-10-13T16:33:41.083Z,15.08
2022-10-13T16:36:10.597Z,15.09
2022-10-13T16:38:38.224Z,15.08
2022-10-13T16:41:09.319Z,15.06
2022-10-13T16:43:37.046Z,15.04
2022-10-13T16:46:06.951Z,15.03
2022-10-13T16:48:34.887Z,15.05
2022-10-13T16:51:06.535Z,15.05
2022-10-13T16:53:34.555Z,15.06
2022-10-13T16:56:02.240Z,15.08
2022-10-13T16:58:31.351Z,15.10
2022-10-13T17:01:03.988Z,15.09
2022-10-13T17:03:31.728Z,15.05
2022-10-13T17:05:59.399Z,15.10
2022-10-13T17:08:27.147Z,15.07
2022-10-13T17:10:58.233Z,15.06
2022-10-13T17:13:26.178Z,15.04
2022-10-13T17:15:57.074Z,15.06
2022-10-13T17:18:25.761Z,15.04
2022-10-13T17:20:54.350Z,15.07
2022-10-13T17:23:22.278Z,15.06
2022-10-13T17:25:50.148Z,15.09
2022-10-13T17:28:18.189Z,15.07
2022-10-13T17:30:46.190Z,15.06
2022-10-13T17:33:15.301Z,15.04
2022-10-13T17:35:42.968Z,15.04
2022-10-13T17:38:10.718Z,15.05
2022-10-13T17:40:38.474Z,15.05
2022-10-13T17:43:06.089Z,15.06
2022-10-13T17:45:33.719Z,15.02
2022-10-13T17:48:01.722Z,15.04
2022-10-13T17:50:30.741Z,14.99
2022-10-13T17:52:58.402Z,15.05
2022-10-13T17:55:26.053Z,15.02
2022-10-13T17:57:53.673Z,15.02
2022-10-13T18:00:21.595Z,15.01
2022-10-13T18:02:49.388Z,15.03
2022-10-13T18:05:17.174Z,15.05
2022-10-13T18:07:46.202Z,15.04
2022-10-13T18:12:08.210Z,15.02
2022-10-13T18:14:35.946Z,15.04
2022-10-13T18:17:03.612Z,15.01
2022-10-13T18:19:31.228Z,15.02
2022-10-13T18:21:58.908Z,14.99
2022-10-13T18:24:26.775Z,15.02
2022-10-13T18:26:54.545Z,15.00
2022-10-13T18:29:23.724Z,15.00
2022-10-13T18:31:51.357Z,14.98
2022-10-13T18:34:19.169Z,14.99
2022-10-13T18:36:48.351Z,14.97
2022-10-13T18:39:18.034Z,14.96
2022-10-13T18:41:46.025Z,15.01
2022-10-13T18:44:13.876Z,15.00
2022-10-13T18:46:43.042Z,15.02
2022-10-13T18:49:13.487Z,15.01
2022-10-13T18:51:41.304Z,15.03
2022-10-13T18:54:15.987Z,15.02
2022-10-13T18:56:43.676Z,15.01
2022-10-13T18:59:12.321Z,15.02
2022-10-13T19:01:42.804Z,15.02
2022-10-13T19:04:12.875Z,15.00
2022-10-13T19:06:41.091Z,15.00
2022-10-13T19:09:11.125Z,15.00
2022-10-13T19:11:38.898Z,15.02
2022-10-13T19:14:07.590Z,15.01
2022-10-13T19:16:37.293Z,15.02
2022-10-13T19:19:07.947Z,15.01
2022-10-13T19:21:36.008Z,15.01
2022-10-13T19:24:04.005Z,15.02
2022-10-13T19:26:33.859Z,14.96
2022-10-13T19:29:03.132Z,15.05
2022-10-13T19:31:31.968Z,15.05
2022-10-13T19:34:00.407Z,15.05
2022-10-13T19:36:31.657Z,15.07
2022-10-13T19:38:59.994Z,15.07
2022-10-13T19:41:29.661Z,15.06
2022-10-13T19:43:57.832Z,15.07
2022-10-13T19:46:25.480Z,15.06
2022-10-13T19:48:53.187Z,15.09
2022-10-13T19:51:20.913Z,15.10
2022-10-13T19:53:50.023Z,15.06
2022-10-13T19:56:25.442Z,15.05
2022-10-13T19:58:54.159Z,15.06
2022-10-13T20:01:21.976Z,15.06
2022-10-13T20:03:49.952Z,15.06
2022-10-13T20:06:18.367Z,15.05
2022-10-13T20:08:46.274Z,15.04
2022-10-13T20:11:22.184Z,15.05
2022-10-13T20:13:51.561Z,15.03
2022-10-13T20:16:20.913Z,15.04
2022-10-13T20:18:52.426Z,15.03
2022-10-13T20:21:20.129Z,15.01
2022-10-13T20:23:47.887Z,15.04
2022-10-13T20:26:17.036Z,15.01
2022-10-13T20:28:46.138Z,14.99
2022-10-13T20:31:14.666Z,15.01
2022-10-13T20:33:42.593Z,15.01
2022-10-13T20:36:13.055Z,14.99
2022-10-13T20:38:40.775Z,14.97
2022-10-13T20:41:10.427Z,14.97
2022-10-13T20:43:39.481Z,14.96
2022-10-13T20:46:08.846Z,14.99
2022-10-13T20:48:58.199Z,14.99
2022-10-13T20:51:26.682Z,14.98
2022-10-13T20:53:54.362Z,14.99
2022-10-13T20:56:23.594Z,14.98
2022-10-13T20:58:53.132Z,14.97
2022-10-13T21:01:22.509Z,14.98
2022-10-13T21:03:52.972Z,14.96
2022-10-13T21:06:20.876Z,14.97
2022-10-13T21:08:49.145Z,14.97
2022-10-13T21:11:18.132Z,14.97
2022-10-13T21:13:46.047Z,14.97
2022-10-13T21:16:17.139Z,14.95
2022-10-13T21:18:45.728Z,14.96
2022-10-13T21:21:13.443Z,14.96
2022-10-13T21:23:41.131Z,14.95
2022-10-13T21:26:10.211Z,14.95
2022-10-13T21:28:38.844Z,14.93
2022-10-13T21:31:08.209Z,14.96
2022-10-13T21:33:38.395Z,14.97
2022-10-13T21:36:07.638Z,14.91
2022-10-13T21:38:35.567Z,14.97
2022-10-13T21:41:05.036Z,14.95
2022-10-13T21:43:32.698Z,14.95
2022-10-13T21:46:09.381Z,14.95
2022-10-13T21:48:38.439Z,14.94
2022-10-13T21:51:16.999Z,14.94
2022-10-13T21:53:48.057Z,14.92
2022-10-13T21:56:15.779Z,14.93
2022-10-13T21:58:43.546Z,14.88
2022-10-13T22:01:11.575Z,14.89
2022-10-13T22:03:41.645Z,14.89
2022-10-13T22:06:15.882Z,14.89
2022-10-13T22:08:47.542Z,14.88
2022-10-13T22:11:15.973Z,14.88
2022-10-13T22:13:43.686Z,14.86
2022-10-13T22:16:14.217Z,14.89
2022-10-13T22:18:43.559Z,14.88
2022-10-13T22:21:13.587Z,14.83
2022-10-13T22:23:41.977Z,14.87
2022-10-13T22:26:10.323Z,14.85
2022-10-13T22:28:38.264Z,14.87
2022-10-13T22:31:06.627Z,14.85
2022-10-13T22:33:36.346Z,14.83
2022-10-13T22:36:09.006Z,14.83
2022-10-13T22:38:36.942Z,14.81
2022-10-13T22:41:05.742Z,14.79
2022-10-13T22:43:33.458Z,14.76
2022-10-13T22:46:02.457Z,14.76
2022-10-13T22:48:30.238Z,14.70
2022-10-13T22:50:58.059Z,14.67
2022-10-13T22:53:27.183Z,14.70
2022-10-13T22:55:54.874Z,14.67
2022-10-13T22:58:22.627Z,14.66
2022-10-13T23:00:50.253Z,14.63
2022-10-13T23:03:18.299Z,14.61
2022-10-13T23:05:48.476Z,14.61
2022-10-13T23:08:16.257Z,14.59
2022-10-13T23:10:45.582Z,14.58
2022-10-13T23:13:13.298Z,14.61
2022-10-13T23:15:40.974Z,14.60
2022-10-13T23:18:08.663Z,14.62
2022-10-13T23:20:40.321Z,14.55
2022-10-13T23:23:08.057Z,14.58
2022-10-13T23:25:36.247Z,14.58
2022-10-13T23:28:06.110Z,14.60
2022-10-13T23:30:33.746Z,14.60
2022-10-13T23:33:01.449Z,14.61
2022-10-13T23:35:29.172Z,14.61
2022-10-13T23:37:56.904Z,14.57
2022-10-13T23:40:24.555Z,14.58
2022-10-13T23:42:52.464Z,14.57
2022-10-13T23:45:21.560Z,14.60
2022-10-13T23:47:49.444Z,14.60
2022-10-13T23:50:17.627Z,14.62
2022-10-13T23:52:45.631Z,14.61
2022-10-13T23:55:13.349Z,14.61
2022-10-13T23:57:41.214Z,14.65
